Terminal Aerodrome Forecast
Issued by NWS

Home | Current Version | Previous Version | Text Only | Print | Product List | Glossary On
Versions: 1 2 3 4 5 6 7 8 9 10 11 12 13 14 15 16 17 18 19 20 21 22 23 24 25 26 27 28
000
FTUS44 KMOB 211722
TAFBFM
TAF
KBFM 211722Z 2118/2218 13003KT P6SM VCTS SCT020CB BKN150
      TEMPO 2118/2122 VRB25KT 3SM TSRA BKN020CB
     FM220300 00000KT P6SM FEW050 BKN250
     FM221200 00000KT P6SM VCSH SCT020 BKN250 PROB30 2212/2218 3SM
      TSRA BKN020CB=

USA.gov is the U.S. government's official web portal to all federal, state and local government web resources and services.